Tiempo atmosférico en la estación meteorológica de Muniesa, Teruel (800 m.)



Fecha
DESCASC
Temp. máxima en grados centígrados (hora)
DESCASC
Temp. mínima en grados centígrados (hora)
DESCASC
Temp. media en grados centígrados
DESCASC
Racha de viento máxima en m/sg (hora)
DESCASC
Velocidad máxima media en intervalos de 10 minutos(hora)
DESCASC
Precipitaciones diarias en mm
DESCASC
Precipitaciones de 00:00 a 06:00 en mm
DESCASC
Precipitaciones de 06:00 a 12:00 en mm
DESCASC
Precipitaciones de 12:00 a 18:00 en mm
DESCASC
Precipitaciones de 18:00 a 24:00 en mm
DESCASC
31-03-2020 4.1 (20:10) -0.9 (06:30) 1.6 -- (--) -- (--) 7.8 0 0 7.4 0.4
29-03-2020 15.2 (15:50) 2.2 (00:00) 8.7 11.94 (19:40) 8.06 (20:20) 0 0 0 0 0
28-03-2020 13.1 (13:50) 2.3 (00:00) 7.7 6.94 (11:10) 3.61 (23:59) 0 0 0 0 0
27-03-2020 10.1 (16:10) -1.9 (-00:0) 4.1 5.56 (13:10) 3.61 (18:30) 0 0 0 0 0
26-03-2020 8.6 (17:00) 0.3 (00:00) 4.5 15.56 (12:50) 9.72 (13:00) 0 0 0 0 0
25-03-2020 9 (17:50) 1.8 (00:00) 5.4 6.39 (15:50) 3.61 (05:10) 3.4 3.4 0 0 0
24-03-2020 9.8 (14:00) 4.4 (00:00) 7.1 7.5 (05:20) 4.72 (13:10) 2.4 2.4 0 0 0
23-03-2020 11.9 (15:20) 6.2 (00:00) 9 10.28 (16:40) 6.67 (16:00) 1.4 0 1.4 0 0
22-03-2020 10.4 (12:00) 5.4 (07:50) 7.9 6.11 (14:40) 3.89 (14:40) 0 0 0 0 0
21-03-2020 12 (14:40) 2.1 (00:00) 7 6.11 (13:30) 3.33 (13:30) 0 0 0 0 0
20-03-2020 13.1 (13:40) 1.6 (00:00) 7.4 8.89 (15:30) 5.83 (15:30) 0 0 0 0 0
19-03-2020 14.4 (14:10) 3.3 (00:00) 8.8 9.44 (15:40) 5 (15:30) 0 0 0 0 0
18-03-2020 14.5 (16:00) 4.7 (00:00) 9.6 5.83 (13:40) 3.33 (17:00) 0 0 0 0 0
17-03-2020 10.6 (15:40) 6.7 (00:00) 8.7 8.61 (08:30) 5.56 (15:00) 11 6.6 3.4 1 0
16-03-2020 11 (00:00) 3.7 (00:00) 7.4 11.67 (11:00) 7.5 (11:00) 29.8 4.4 4.2 12.8 8.4
15-03-2020 17.9 (13:10) 5.3 (00:00) 11.6 15 (20:50) 9.44 (20:50) 1.2 0 0 0 1.2
14-03-2020 16.3 (14:10) 2.9 (00:00) 9.6 8.06 (14:30) 5 (14:30) 0 0 0 0 0
13-03-2020 14.2 (15:50) 7.2 (07:50) 10.7 7.22 (10:00) 5 (10:00) 0 0 0 0 0
12-03-2020 24.5 (14:30) 9.5 (00:00) 17 6.39 (21:10) 4.17 (21:10) 1.8 0 0 0 1.8
11-03-2020 24.9 (16:40) 5.9 (00:00) 15.4 8.33 (14:40) 5 (11:00) 0 0 0 0 0
10-03-2020 21.6 (17:00) 5.4 (00:00) 13.5 12.5 (03:20) 6.67 (03:20) 0 0 0 0 0
09-03-2020 12.1 (14:20) 5.5 (00:00) 8.8 17.5 (16:20) 11.11 (15:50) 0 0 0 0 0
08-03-2020 16.3 (16:50) 2.9 (00:00) 9.6 10.83 (10:50) 6.39 (12:50) 0 0 0 0 0
07-03-2020 11.3 (16:00) 2.3 (00:00) 6.8 18.33 (13:10) 11.67 (12:50) 0 0 0 0 0
06-03-2020 7.4 (15:40) 0.8 (00:00) 4.1 20.83 (14:10) 12.78 (14:10) 3.2 0 2.4 0.8 0
05-03-2020 16.1 (13:30) 5 (00:00) 10.6 21.11 (15:30) 12.78 (15:40) 2 0 0 0 2
04-03-2020 17 (14:20) 5.3 (01:40) 11.2 15.56 (13:10) 9.72 (12:50) 0 0 0 0 0
03-03-2020 16.4 (16:30) 2.8 (00:00) 9.6 25.28 (14:20) 15.83 (16:10) 3.6 0 0.4 0 3.2
02-03-2020 13.9 (01:50) 2 (00:00) 7.9 28.89 (05:30) 17.5 (05:30) 2.2 0 1.6 0.6 0

Gráficas

Temp. máximas Temp. mínimas Temp. medias Precipitaciones Rachas de viento máximas Velocidades máximas media en intervalos de 10 minutos

Datos horarios

Fecha y hora oficial Temperatura (ºC) Velocidad del viento (km/h) Dirección del viento Racha (km/h) Dirección de racha Precipitación (mm) Presión (hPa) Tendencia (hPa) Humedad (%)
2020-03-31 23:00:00 3.7 6 Este 8 Este 0 -- -- 98
2020-03-31 22:00:00 3.6 5 Sudeste 10 Sudeste 0 -- -- 97
2020-03-31 21:00:00 3.9 3 Sudeste 8 Sudeste 0 -- -- 97
2020-03-31 20:00:00 4 3 Sudeste 11 Este 0 -- -- 97
2020-03-31 19:00:00 3.9 6 Este 9 Este 0.2 -- -- 96
2020-03-31 18:00:00 3.7 4 Este 8 Nordeste 0.8 -- -- 96
2020-03-31 17:00:00 3.5 3 Nordeste 6 Norte 1.4 -- -- 96
2020-03-31 16:00:00 2.7 0 Calma 4 Oeste 1 -- -- 95
2020-03-31 15:00:00 2.3 2 Noroeste 5 Nordeste 1.8 -- -- 94
2020-03-31 14:00:00 1.5 2 Nordeste 4 Nordeste 1.8 -- -- 94
2020-03-31 13:00:00 1.2 2 Este 8 Este 0.6 -- -- 94
2020-03-31 12:00:00 0.8 3 Este 5 Este 0 -- -- 96
2020-03-31 11:00:00 0.2 -- -- -- -- 0 -- -- 98
2020-03-31 10:00:00 -0.5 -- -- -- -- 0 -- -- 98
2020-03-31 09:00:00 -0.7 -- -- -- -- 0 -- -- 97
2020-03-31 08:00:00 -0.9 -- -- -- -- -- -- -- 97
2020-03-31 07:00:00 -- -- -- -- -- -- -- -- --
2020-03-31 06:00:00 -- -- -- -- -- -- -- -- --
2020-03-31 05:00:00 -- -- -- -- -- -- -- -- --
2020-03-31 04:00:00 -- -- -- -- -- -- -- -- --
2020-03-31 03:00:00 -- -- -- -- -- -- -- -- --
2020-03-31 02:00:00 -- -- -- -- -- -- -- -- --
2020-03-31 01:00:00 -- -- -- -- -- -- -- -- --
2020-03-31 00:00:00 0 0 Calma 5 Noroeste 0 -- -- 93
2020-03-30 23:00:00 0.3 3 Noroeste 6 Noroeste 0 -- -- 93
2020-03-30 22:00:00 0.6 3 Noroeste 6 Oeste 0 -- -- 90
2020-03-30 21:00:00 0.7 3 Oeste 6 Sur 0.2 -- -- 89
2020-03-30 20:00:00 0.6 3 Sudoeste 5 Sudoeste 0 -- -- 90
2020-03-30 19:00:00 0.7 3 Oeste 8 Oeste 0 -- -- 89
2020-03-30 18:00:00 1.6 6 Noroeste 28 Noroeste 0 -- -- 80
2020-03-30 17:00:00 3.3 11 Noroeste 26 Noroeste 0 -- -- 61
2020-03-30 16:00:00 3.4 15 Noroeste 26 Noroeste 0 -- -- 58
2020-03-30 15:00:00 3.7 17 Noroeste 28 Noroeste 0 -- -- 59
2020-03-30 14:00:00 3.3 14 Noroeste 27 Oeste 0 -- -- 62
2020-03-30 13:00:00 1.9 16 Noroeste 36 Noroeste 0 -- -- 67
2020-03-30 12:00:00 1.3 20 Noroeste 37 Noroeste 0 -- -- 71
2020-03-30 11:00:00 1.2 20 Noroeste 42 Noroeste 0 -- -- 71
2020-03-30 10:00:00 1.3 23 Noroeste 43 Noroeste 0 -- -- 69
2020-03-30 09:00:00 1.4 21 Noroeste 32 Noroeste 0 -- -- 71
2020-03-30 08:00:00 1.6 15 Noroeste 38 Noroeste 0 -- -- 72
2020-03-30 07:00:00 2 21 Noroeste 35 Noroeste 0 -- -- 76
2020-03-30 06:00:00 2.9 17 Noroeste 40 Noroeste 0 -- -- 78
2020-03-30 05:00:00 3.6 18 Noroeste 33 Noroeste 0 -- -- 82
2020-03-30 04:00:00 4.4 14 Noroeste 31 Noroeste 0 -- -- 86
2020-03-30 03:00:00 4.7 15 Noroeste 34 Noroeste 0 -- -- 85
2020-03-30 02:00:00 5 18 Noroeste 35 Oeste 0 -- -- 82
2020-03-30 01:00:00 5 11 Noroeste 25 Oeste 0 -- -- 79
2020-03-30 00:00:00 5.6 17 Noroeste 33 Noroeste 0 -- -- 78
2020-03-29 23:00:00 6 14 Oeste 37 Noroeste 0 -- -- 79
2020-03-29 22:00:00 6.5 23 Noroeste 41 Noroeste 0 -- -- 78
2020-03-29 21:00:00 7.7 21 Noroeste 41 Noroeste 0 -- -- 74
2020-03-29 20:00:00 9.8 26 Noroeste 43 Noroeste 0 -- -- 62
2020-03-29 19:00:00 12.4 24 Noroeste 42 Noroeste 0 -- -- 49
2020-03-29 18:00:00 14 23 Noroeste 35 Noroeste 0 -- -- 42
2020-03-29 17:00:00 14.9 21 Noroeste 37 Noroeste 0 -- -- 36
2020-03-29 16:00:00 15.1 21 Noroeste 35 Norte 0 -- -- 37
2020-03-29 15:00:00 15 19 Noroeste 38 Noroeste 0 -- -- 41
2020-03-29 14:00:00 14.5 19 Noroeste 30 Noroeste 0 -- -- 48
2020-03-29 13:00:00 14.2 15 Noroeste 31 Noroeste 0 -- -- 50
2020-03-29 12:00:00 12.8 14 Noroeste 24 Noroeste 0 -- -- 55
2020-03-29 11:00:00 10.6 7 Noroeste 17 Noroeste 0 -- -- 62
2020-03-29 10:00:00 7.5 3 Oeste 8 Noroeste 0 -- -- 71
2020-03-29 09:00:00 3.7 2 Sudoeste 4 Sur 0 -- -- 82
2020-03-29 08:00:00 2.2 2 Sudoeste 5 Noroeste 0 -- -- 83
2020-03-29 07:00:00 3.4 0 Calma 10 Oeste 0 -- -- 79
2020-03-29 06:00:00 3.7 3 Sudoeste 8 Sur 0 -- -- 78
2020-03-29 05:00:00 3.3 4 Sur 8 Sur 0 -- -- 80
2020-03-29 03:00:00 5 8 Sur 10 Sur 0 -- -- 76
2020-03-29 01:00:00 5.2 8 Sur 15 Sur 0 -- -- 77
2020-03-29 00:00:00 5.5 13 Sur 15 Sur 0 -- -- 78
2020-03-28 23:00:00 5.6 10 Sur 13 Sur 0 -- -- 79
2020-03-28 22:00:00 6.4 8 Sur 12 Sur 0 -- -- 76
2020-03-28 21:00:00 7.3 4 Sur 8 Sudeste 0 -- -- 73
2020-03-28 20:00:00 9.6 5 Sudeste 10 Sudeste 0 -- -- 64
2020-03-28 19:00:00 11.8 7 Este 14 Este 0 -- -- 55
2020-03-28 18:00:00 12.7 4 Este 18 Este 0 -- -- 50
2020-03-28 17:00:00 12.5 10 Este 22 Este 0 -- -- 51
2020-03-28 16:00:00 12.8 6 Noroeste 15 Nordeste 0 -- -- 52
2020-03-28 15:00:00 12.6 8 Norte 17 Nordeste 0 -- -- 53
2020-03-28 14:00:00 12.4 8 Norte 14 Noroeste 0 -- -- 52
2020-03-28 13:00:00 11.3 5 Nordeste 14 Nordeste 0 -- -- 53
2020-03-28 12:00:00 10.7 5 Norte 25 Sudeste 0 -- -- 52
2020-03-28 11:00:00 10 5 Norte 10 Nordeste 0 -- -- 55
2020-03-28 10:00:00 9 2 Norte 8 Norte 0 -- -- 57
2020-03-28 09:00:00 7.3 5 Oeste 8 Oeste 0 -- -- 67
2020-03-28 08:00:00 4.9 0 Calma 4 Oeste 0 -- -- 84
2020-03-28 07:00:00 4.4 0 Calma 5 Sur 0 -- -- 85
2020-03-28 06:00:00 4.3 3 Sur 8 Sur 0 -- -- 84
2020-03-28 05:00:00 3.9 4 Sur 5 Sur 0 -- -- 86
2020-03-28 04:00:00 3.4 2 Sur 4 Sur 0 -- -- 87
2020-03-28 03:00:00 3.6 2 Sur 6 Sur 0 -- -- 83
2020-03-28 02:00:00 3 6 Sur 11 Sur 0 -- -- 84
2020-03-28 01:00:00 2.3 8 Sur 10 Sur 0 -- -- 85
2020-03-28 00:00:00 2.8 6 Sur 9 Sur 0 -- -- 84
2020-03-27 23:00:00 3.3 6 Sur 9 Sur 0 -- -- 84
2020-03-27 22:00:00 4.1 2 Sudoeste 6 Sur 0 -- -- 81
2020-03-27 21:00:00 4.6 3 Sur 5 Sur 0 -- -- 79
2020-03-27 20:00:00 5.9 4 Nordeste 14 Nordeste 0 -- -- 73
2020-03-27 19:00:00 7.6 9 Nordeste 18 Nordeste 0 -- -- 66
2020-03-27 18:00:00 9.7 8 Nordeste 19 Este 0 -- -- 56
2020-03-27 17:00:00 10 9 Este 19 Este 0 -- -- 53
2020-03-27 16:00:00 9.7 8 Nordeste 18 Norte 0 -- -- 50
2020-03-27 15:00:00 9.1 6 Norte 19 Nordeste 0 -- -- 58
2020-03-27 14:00:00 8 6 Nordeste 20 Este 0 -- -- 58
2020-03-27 13:00:00 7.9 11 Este 17 Este 0 -- -- 60
2020-03-27 12:00:00 6.6 4 Noroeste 19 Nordeste 0 -- -- 64
2020-03-27 11:00:00 5.1 7 Norte 15 Norte 0 -- -- 71
2020-03-27 10:00:00 4.1 6 Noroeste 15 Noroeste 0 -- -- 72
2020-03-27 09:00:00 1.9 9 Noroeste 16 Oeste 0 -- -- 80
2020-03-27 08:00:00 0.4 4 Oeste 10 Noroeste 0 -- -- 85
2020-03-27 07:00:00 -0.7 2 Sudoeste 5 Sur 0 -- -- 86
2020-03-27 06:00:00 -1.1 0 Calma 6 Oeste 0 -- -- 86
2020-03-27 05:00:00 -1.5 4 Oeste 10 Oeste 0 -- -- 84
2020-03-27 04:00:00 -1.8 2 Sudoeste 5 Sudoeste 0 -- -- 84
2020-03-27 03:00:00 -1.1 2 Sur 8 Oeste 0 -- -- 81
2020-03-27 02:00:00 -0.4 5 Oeste 10 Oeste 0 -- -- 78
2020-03-27 01:00:00 -0.2 0 Calma 6 Oeste 0 -- -- 77
2020-03-27 00:00:00 0.3 2 Sudoeste 6 Noroeste 0 -- -- 75
2020-03-26 23:00:00 1.7 4 Noroeste 16 Oeste 0 -- -- 69
2020-03-26 22:00:00 2.6 6 Oeste 13 Oeste 0 -- -- 65
2020-03-26 21:00:00 3 5 Noroeste 9 Noroeste 0 -- -- 66
2020-03-26 20:00:00 4.5 5 Norte 26 Norte 0 -- -- 64
2020-03-26 19:00:00 6.8 17 Noroeste 30 Noroeste 0 -- -- 55
2020-03-26 18:00:00 7.9 18 Noroeste 27 Noroeste 0 -- -- 49
2020-03-26 17:00:00 8.6 19 Noroeste 33 Noroeste 0 -- -- 46
2020-03-26 16:00:00 7.3 21 Noroeste 44 Noroeste 0 -- -- 51
2020-03-26 15:00:00 7.1 25 Noroeste 44 Norte 0 -- -- 56
2020-03-26 14:00:00 7.6 32 Noroeste 49 Noroeste 0 -- -- 54
2020-03-26 13:00:00 7.1 35 Noroeste 56 Noroeste 0 -- -- 67
2020-03-26 12:00:00 6.5 33 Noroeste 55 Noroeste 0 -- -- 75
2020-03-26 11:00:00 6.5 34 Noroeste 53 Noroeste 0 -- -- 70
2020-03-26 10:00:00 6.1 30 Noroeste 53 Noroeste 0 -- -- 74
2020-03-26 09:00:00 5.1 28 Noroeste 46 Noroeste 0 -- -- 82
2020-03-26 08:00:00 4.4 22 Oeste 37 Oeste 0 -- -- 84
2020-03-26 07:00:00 2.9 8 Noroeste 18 Oeste 0 -- -- 87
2020-03-26 06:00:00 2.7 11 Oeste 20 Oeste 0 -- -- 87
2020-03-26 05:00:00 0.9 12 Oeste 31 Noroeste 0 -- -- 85
2020-03-26 04:00:00 1.9 12 Oeste 27 Noroeste 0 -- -- 94
2020-03-26 03:00:00 2.5 11 Oeste 22 Oeste 0 -- -- 99
2020-03-26 02:00:00 1.5 0 Calma 3 Sudoeste 0 -- -- 97
2020-03-26 01:00:00 1.2 4 Sudoeste 6 Sur 0 -- -- 97
2020-03-26 00:00:00 1.8 2 Oeste 9 Sur 0 -- -- 96
2020-03-25 23:00:00 2.6 3 Sur 6 Sur 0 -- -- 94
2020-03-25 22:00:00 3.7 5 Este 17 Este 0 -- -- 94
2020-03-25 21:00:00 4.3 10 Sudeste 15 Sudeste 0 -- -- 92
2020-03-25 20:00:00 5.4 9 Este 13 Este 0 -- -- 89
2020-03-25 19:00:00 7.6 9 Este 15 Este 0 -- -- 80
2020-03-25 18:00:00 8.9 3 Noroeste 8 Noroeste 0 -- -- 72
2020-03-25 17:00:00 8.4 3 Norte 14 Nordeste 0 -- -- 74
2020-03-25 16:00:00 8.2 8 Norte 23 Norte 0 -- -- 79
2020-03-25 15:00:00 7.9 9 Norte 18 Norte 0 -- -- 83
2020-03-25 14:00:00 7.7 6 Sudoeste 13 Oeste 0 -- -- 84
2020-03-25 13:00:00 5.8 8 Norte 18 Norte 0 -- -- 97
2020-03-25 12:00:00 5.3 9 Nordeste 18 Norte 0 -- -- 95
2020-03-25 11:00:00 6 9 Noroeste 15 Noroeste 0 -- -- 94
2020-03-25 10:00:00 5.5 9 Noroeste 14 Noroeste 0 -- -- 94
2020-03-25 09:00:00 4.7 3 Norte 14 Este 0 -- -- 95
2020-03-25 08:00:00 4.1 12 Este 17 Este 0 -- -- 95
2020-03-25 07:00:00 4.5 7 Este 14 Sur 0 -- -- 90
2020-03-25 06:00:00 4.3 9 Sur 20 Sur 0 -- -- 91
2020-03-25 05:00:00 4 12 Sur 21 Sur 1 -- -- 93
2020-03-25 04:00:00 4.7 6 Oeste 9 Oeste 1.4 -- -- 93
2020-03-25 03:00:00 5 3 Sudeste 9 Sudeste 1 -- -- 92
2020-03-25 02:00:00 5.2 6 Sudeste 10 Sudeste 0 -- -- 90
2020-03-25 01:00:00 5 3 Nordeste 5 Norte 0 -- -- 90
2020-03-25 00:00:00 4.7 2 Sur 13 Sudeste 0 -- -- 89
2020-03-24 23:00:00 4.4 9 Este 15 Sudeste 0 -- -- 88
2020-03-24 22:00:00 5.3 6 Sur 15 Sudeste 0 -- -- 84
2020-03-24 21:00:00 5.7 12 Sudeste 19 Sudeste 0 -- -- 86
2020-03-24 20:00:00 6.3 10 Sudeste 12 Sudeste 0 -- -- 85
2020-03-24 19:00:00 8.3 6 Sudeste 17 Sudeste 0 -- -- 78
2020-03-24 18:00:00 9.7 11 Sudeste 19 Este 0 -- -- 74
2020-03-24 17:00:00 9.3 13 Este 20 Este 0 -- -- 78
2020-03-24 16:00:00 9.2 13 Este 22 Este 0 -- -- 78
2020-03-24 15:00:00 9.3 13 Este 22 Este 0 -- -- 77
2020-03-24 14:00:00 9.8 12 Este 22 Este 0 -- -- 78
2020-03-24 13:00:00 9.3 13 Este 23 Nordeste 0 -- -- 84
2020-03-24 12:00:00 8.9 12 Nordeste 21 Nordeste 0 -- -- 90
2020-03-24 11:00:00 7.2 10 Este 21 Este 0 -- -- 96
2020-03-24 10:00:00 6.9 10 Este 19 Este 0 -- -- 98
2020-03-24 09:00:00 6.9 10 Este 18 Este 0 -- -- 97
2020-03-24 08:00:00 6.8 10 Este 17 Nordeste 0 -- -- 98
2020-03-24 07:00:00 6.8 9 Nordeste 17 Este 0 -- -- 98
2020-03-24 06:00:00 7 10 Este 27 Este 0.8 -- -- 98
2020-03-24 05:00:00 7.3 11 Este 22 Este 0.6 -- -- 98
2020-03-24 04:00:00 7.4 10 Este 17 Este 0 -- -- 97
2020-03-24 03:00:00 7.4 8 Este 15 Este 0 -- -- 97
2020-03-24 02:00:00 7.4 9 Este 16 Este 1 -- -- 95
2020-03-24 01:00:00 7.8 10 Este 21 Este 0 -- -- 93
2020-03-24 00:00:00 7.9 14 Este 20 Este 0 -- -- 94
2020-03-23 23:00:00 8.2 14 Este 21 Este 0 -- -- 93
2020-03-23 22:00:00 8.4 12 Este 20 Este 0 -- -- 93
2020-03-23 21:00:00 8.4 13 Este 22 Este 0 -- -- 89
2020-03-23 20:00:00 8.4 11 Este 27 Este 0 -- -- 86
2020-03-23 19:00:00 9.7 18 Este 28 Este 0 -- -- 78
2020-03-23 18:00:00 10.9 21 Este 33 Este 0 -- -- 76
2020-03-23 17:00:00 11 23 Este 37 Este 0 -- -- 77
2020-03-23 16:00:00 11.2 24 Este 34 Este 0 -- -- 78
2020-03-23 15:00:00 11.7 15 Este 27 Este 0 -- -- 74
2020-03-23 14:00:00 11.3 13 Este 25 Este 0 -- -- 74
2020-03-23 13:00:00 9.7 13 Este 24 Este 0 -- -- 85
2020-03-23 12:00:00 9.3 18 Este 27 Este 0 -- -- 89
2020-03-23 11:00:00 8.6 13 Este 22 Este 1 -- -- 94
2020-03-23 10:00:00 7.6 12 Este 20 Este 0.4 -- -- 98
2020-03-23 09:00:00 7.3 5 Este 9 Este 0 -- -- 97
2020-03-23 08:00:00 6.9 6 Nordeste 12 Nordeste 0 -- -- 97
2020-03-23 07:00:00 6.6 0 Calma 4 Norte 0 -- -- 96
2020-03-23 06:00:00 6.8 3 Norte 6 Norte 0 -- -- 96
2020-03-23 05:00:00 6.5 0 Calma 3 Noroeste 0 -- -- 97
2020-03-23 04:00:00 6.3 0 Calma 4 Noroeste 0 -- -- 96
2020-03-23 03:00:00 6.2 3 Noroeste 5 Noroeste 0 -- -- 96
2020-03-23 02:00:00 6.4 0 Calma 2 Sudoeste 0 -- -- 95
2020-03-23 01:00:00 6.7 0 Calma 6 Este 0 -- -- 95
2020-03-23 00:00:00 6.8 3 Sudeste 5 Sudeste 0 -- -- 93
2020-03-22 23:00:00 7.9 3 Este 8 Este 0 -- -- 91
2020-03-22 22:00:00 7.8 2 Este 3 Este 0 -- -- 92
2020-03-22 21:00:00 8.3 0 Calma 5 Sudeste 0 -- -- 89
2020-03-22 20:00:00 8.5 3 Sudeste 13 Este 0 -- -- 87
2020-03-22 19:00:00 9 9 Este 17 Este 0 -- -- 84
2020-03-22 18:00:00 9.6 10 Este 21 Este 0 -- -- 80
2020-03-22 17:00:00 9.6 14 Este 22 Nordeste 0 -- -- 77
2020-03-22 16:00:00 9.8 10 Este 21 Este 0 -- -- 79
2020-03-22 15:00:00 9.7 12 Este 22 Este 0 -- -- 80
2020-03-22 14:00:00 9.6 11 Nordeste 21 Este 0 -- -- 79
2020-03-22 13:00:00 9.4 11 Este 19 Este 0 -- -- 78
2020-03-22 12:00:00 10.4 10 Este 18 Este 0 -- -- 70
2020-03-22 11:00:00 8.7 4 Nordeste 7 Nordeste 0 -- -- 80
2020-03-22 10:00:00 6.6 2 Noroeste 6 Noroeste 0 -- -- 99
2020-03-22 09:00:00 5.7 3 Noroeste 8 Noroeste 0 -- -- 98
2020-03-22 08:00:00 5.4 4 Noroeste 9 Norte 0 -- -- 98
2020-03-22 07:00:00 5.7 3 Norte 5 Norte 0 -- -- 97
2020-03-22 06:00:00 6.1 3 Nordeste 5 Noroeste 0 -- -- 94
2020-03-22 05:00:00 6.7 2 Oeste 4 Oeste 0 -- -- 92
2020-03-22 04:00:00 7.5 0 Calma 3 Norte 0 -- -- 90
2020-03-22 03:00:00 7.9 0 Calma 3 Sudoeste 0 -- -- 89
2020-03-22 02:00:00 8.1 0 Calma 4 Sur 0 -- -- 88
2020-03-22 01:00:00 8.3 0 Calma 3 Este 0 -- -- 87
2020-03-22 00:00:00 8.3 0 Calma 5 Sudeste 0 -- -- 85
2020-03-21 23:00:00 8.3 0 Calma 4 Sur 0 -- -- 82
2020-03-21 22:00:00 8.9 2 Sudeste 4 Sudeste 0 -- -- 77
2020-03-21 21:00:00 9.5 2 Sudeste 9 Este 0 -- -- 74
2020-03-21 20:00:00 10 7 Este 19 Nordeste 0 -- -- 72
2020-03-21 19:00:00 10.5 10 Nordeste 18 Nordeste 0 -- -- 72
2020-03-21 18:00:00 11.2 10 Nordeste 17 Este 0 -- -- 71
2020-03-21 17:00:00 11.7 9 Este 16 Este 0 -- -- 68
2020-03-21 16:00:00 11.7 8 Este 14 Este 0 -- -- 68
2020-03-21 15:00:00 11.6 6 Nordeste 17 Oeste 0 -- -- 68
2020-03-21 14:00:00 11.6 8 Oeste 22 Oeste 0 -- -- 64
2020-03-21 13:00:00 11.4 3 Sudeste 16 Este 0 -- -- 65
2020-03-21 12:00:00 11.3 8 Este 17 Este 0 -- -- 70
2020-03-21 11:00:00 9.5 9 Nordeste 14 Nordeste 0 -- -- 77
2020-03-21 10:00:00 8.3 6 Este 9 Este 0 -- -- 84
2020-03-21 09:00:00 5.6 0 Calma 5 Sur 0 -- -- 93
2020-03-21 08:00:00 3 4 Sur 10 Sur 0 -- -- 95
2020-03-21 07:00:00 2.2 3 Sur 6 Sur 0 -- -- 96
2020-03-21 06:00:00 2.4 0 Calma 2 Sudeste 0 -- -- 95
2020-03-21 05:00:00 2.7 0 Calma 4 Sur 0 -- -- 95
2020-03-21 04:00:00 3.4 0 Calma 4 Sur 0 -- -- 95
2020-03-21 03:00:00 3.7 0 Calma 9 Sur 0 -- -- 94
2020-03-21 02:00:00 3.9 3 Sur 5 Sur 0 -- -- 94
2020-03-21 01:00:00 4.4 0 Calma 5 Sur 0 -- -- 93
2020-03-21 00:00:00 5 2 Sur 5 Sur 0 -- -- 92
2020-03-20 23:00:00 5.7 3 Sur 5 Sur 0 -- -- 90
2020-03-20 22:00:00 6.9 0 Calma 15 Este 0 -- -- 87
2020-03-20 21:00:00 7.7 11 Este 16 Este 0 -- -- 86
2020-03-20 20:00:00 8.5 10 Este 16 Este 0 -- -- 84
2020-03-20 19:00:00 10 9 Este 23 Este 0 -- -- 77
2020-03-20 18:00:00 11.6 16 Este 25 Este 0 -- -- 69
2020-03-20 17:00:00 12.4 17 Este 27 Este 0 -- -- 68
2020-03-20 16:00:00 12.4 18 Nordeste 32 Este 0 -- -- 71
2020-03-20 15:00:00 12.3 18 Este 31 Este 0 -- -- 72
2020-03-20 14:00:00 12.6 15 Este 29 Este 0 -- -- 70
2020-03-20 13:00:00 12.2 14 Este 23 Este 0 -- -- 60
2020-03-20 12:00:00 10.8 11 Este 19 Este 0 -- -- 65
2020-03-20 11:00:00 9 12 Este 19 Este 0 -- -- 75
2020-03-20 10:00:00 7.4 12 Este 16 Sudeste 0 -- -- 90
2020-03-20 09:00:00 5.4 0 Calma 11 Sudeste 0 -- -- 99
2020-03-20 08:00:00 2.8 3 Sur 6 Sudeste 0 -- -- 99
2020-03-20 07:00:00 1.8 2 Sur 4 Sur 0 -- -- 97
2020-03-20 06:00:00 2.6 0 Calma 3 Oeste 0 -- -- 97
2020-03-20 05:00:00 2.7 0 Calma 4 Noroeste 0 -- -- 96
2020-03-20 04:00:00 2.6 0 Calma 4 Sur 0 -- -- 94
2020-03-20 03:00:00 3.3 0 Calma 2 Sur 0 -- -- 93
2020-03-20 02:00:00 4 2 Sur 5 Sur 0 -- -- 92
2020-03-20 01:00:00 4.8 3 Sur 7 Sur 0 -- -- 91
2020-03-20 00:00:00 5.1 3 Sur 4 Sur 0 -- -- 91
2020-03-19 23:00:00 5.9 0 Calma 6 Sur 0 -- -- 88
2020-03-19 22:00:00 6.6 4 Sur 6 Sudoeste 0 -- -- 86
2020-03-19 21:00:00 8.2 0 Calma 4 Este 0 -- -- 79
2020-03-19 20:00:00 9.2 2 Este 8 Nordeste 0 -- -- 75
2020-03-19 19:00:00 10.8 5 Nordeste 19 Este 0 -- -- 69
2020-03-19 18:00:00 12.7 14 Nordeste 26 Este 0 -- -- 69
2020-03-19 17:00:00 13.7 16 Nordeste 29 Nordeste 0 -- -- 66
2020-03-19 16:00:00 14.1 16 Este 34 Nordeste 0 -- -- 63
2020-03-19 15:00:00 13.9 14 Este 26 Este 0 -- -- 62
2020-03-19 14:00:00 14.2 13 Este 25 Este 0 -- -- 55
2020-03-19 13:00:00 13.4 12 Este 23 Nordeste 0 -- -- 57
2020-03-19 12:00:00 12.4 13 Este 23 Este 0 -- -- 61
2020-03-19 11:00:00 10 6 Este 11 Nordeste 0 -- -- 68
2020-03-19 10:00:00 8 4 Sudeste 7 Sudeste 0 -- -- 71
2020-03-19 09:00:00 5.7 3 Sudeste 6 Sudoeste 0 -- -- 92
2020-03-19 08:00:00 3.6 3 Sur 6 Sur 0 -- -- 91
2020-03-19 07:00:00 3.3 0 Calma 7 Sur 0 -- -- 93
2020-03-19 06:00:00 3.9 6 Sur 8 Sur 0 -- -- 94
2020-03-19 05:00:00 4.5 4 Sur 8 Sudeste 0 -- -- 97
2020-03-19 04:00:00 5.7 8 Sudeste 11 Sudeste 0 -- -- 98
2020-03-19 03:00:00 6.1 8 Sudeste 9 Sudeste 0 -- -- 98
2020-03-19 02:00:00 5.5 3 Sur 8 Sur 0 -- -- 96
2020-03-19 01:00:00 6.4 5 Sur 8 Sur 0 -- -- 97
2020-03-19 00:00:00 6.6 0 Calma 8 Sur 0 -- -- 96
2020-03-18 23:00:00 7.5 2 Sur 5 Sur 0 -- -- 95
2020-03-18 22:00:00 8.2 4 Sudeste 7 Sudeste 0 -- -- 93
2020-03-18 21:00:00 9.5 2 Sur 8 Sur 0 -- -- 93
2020-03-18 20:00:00 10.1 5 Sudoeste 11 Este 0 -- -- 92
2020-03-18 19:00:00 11.2 8 Este 15 Este 0 -- -- 88
2020-03-18 18:00:00 12.4 9 Este 17 Este 0 -- -- 80
2020-03-18 17:00:00 13.4 12 Este 20 Este 0 -- -- 76
2020-03-18 16:00:00 14.5 7 Este 19 Nordeste 0 -- -- 70
2020-03-18 15:00:00 13.6 9 Este 18 Este 0 -- -- 68
2020-03-18 14:00:00 12.9 12 Este 21 Este 0 -- -- 71
2020-03-18 13:00:00 12.4 10 Este 17 Este 0 -- -- 74
2020-03-18 12:00:00 11.1 7 Este 12 Este 0 -- -- 75
2020-03-18 11:00:00 9.7 3 Nordeste 6 Nordeste 0 -- -- 84
2020-03-18 10:00:00 8.2 2 Norte 4 Norte 0 -- -- 93
2020-03-18 09:00:00 6.4 0 Calma 6 Sur 0 -- -- 97
2020-03-18 08:00:00 4.8 4 Sur 6 Sur 0 -- -- 97
2020-03-18 07:00:00 5 4 Sur 6 Sur 0 -- -- 97
2020-03-18 06:00:00 5.4 4 Sur 6 Sur 0 -- -- 98
2020-03-18 05:00:00 5.9 3 Sur 5 Sur 0 -- -- 98
2020-03-18 04:00:00 6.2 2 Sur 6 Sudeste 0 -- -- 98
2020-03-18 03:00:00 6.8 5 Sudeste 6 Sudeste 0 -- -- 98
2020-03-18 02:00:00 6.3 2 Sudeste 6 Sur 0 -- -- 97
2020-03-18 01:00:00 6.2 3 Sur 5 Sudeste 0 -- -- 96
2020-03-18 00:00:00 6.8 2 Sudeste 6 Este 0 -- -- 96
2020-03-17 23:00:00 7.4 3 Sudeste 4 Sudeste 0 -- -- 96
2020-03-17 22:00:00 7.8 3 Sudeste 10 Este 0 -- -- 95
2020-03-17 21:00:00 8.4 10 Este 15 Este 0 -- -- 94
2020-03-17 20:00:00 8.9 5 Este 21 Este 0 -- -- 94
2020-03-17 19:00:00 9.9 15 Este 26 Este 0 -- -- 92
2020-03-17 18:00:00 10.6 16 Este 30 Este 0 -- -- 89
2020-03-17 17:00:00 10.5 15 Este 30 Este 0 -- -- 91
2020-03-17 16:00:00 10.6 12 Este 28 Este 0 -- -- 98
2020-03-17 15:00:00 10.1 20 Este 30 Este 0 -- -- 100
2020-03-17 14:00:00 9.5 15 Este 26 Este 0.8 -- -- 100
2020-03-17 13:00:00 9.6 17 Este 26 Este 0.2 -- -- 100
2020-03-17 12:00:00 9.5 18 Este 27 Este 0.4 -- -- 100
2020-03-17 11:00:00 9.2 14 Este 27 Este 0 -- -- 100
2020-03-17 10:00:00 9 15 Este 27 Este 0 -- -- 100
2020-03-17 09:00:00 8.8 17 Este 31 Este 0.2 -- -- 100
2020-03-17 08:00:00 8.6 18 Nordeste 27 Nordeste 1.8 -- -- 100
2020-03-17 07:00:00 8.4 11 Nordeste 24 Nordeste 1 -- -- 100
2020-03-17 06:00:00 8.2 13 Nordeste 24 Nordeste 3.4 -- -- 100
2020-03-17 05:00:00 8.4 12 Nordeste 26 Este 1.2 -- -- 99
2020-03-17 04:00:00 8.1 17 Nordeste 28 Nordeste 0.2 -- -- 99
2020-03-17 03:00:00 7.9 12 Nordeste 19 Nordeste 0.8 -- -- 99
2020-03-17 02:00:00 7.5 3 Nordeste 9 Nordeste 0.4 -- -- 99
2020-03-17 01:00:00 7 0 Calma 4 Oeste 0.6 -- -- 98
2020-03-17 00:00:00 6.7 3 Oeste 6 Noroeste 1 -- -- 98
2020-03-16 23:00:00 6.3 3 Sudoeste 6 Oeste 1.6 -- -- 98
2020-03-16 22:00:00 5.9 4 Noroeste 12 Noroeste 1.4 -- -- 97
2020-03-16 21:00:00 5.4 3 Noroeste 10 Noroeste 1.2 -- -- 97
2020-03-16 20:00:00 5.3 8 Noroeste 13 Noroeste 0.4 -- -- 97
2020-03-16 19:00:00 5.4 7 Noroeste 14 Oeste 2.8 -- -- 97
2020-03-16 18:00:00 4.8 10 Oeste 19 Sudoeste 2.6 -- -- 97
2020-03-16 17:00:00 4.5 7 Noroeste 18 Noroeste 2.2 -- -- 97
2020-03-16 16:00:00 4.1 8 Noroeste 20 Noroeste 1 -- -- 97
2020-03-16 15:00:00 3.9 13 Noroeste 23 Norte 0.4 -- -- 97
2020-03-16 14:00:00 3.9 13 Noroeste 19 Noroeste 1.4 -- -- 96
2020-03-16 13:00:00 3.9 10 Noroeste 25 Noroeste 5.2 -- -- 95
2020-03-16 12:00:00 5.1 15 Noroeste 37 Sudeste 4 -- -- 89
2020-03-16 11:00:00 9.2 27 Este 42 Este 0 -- -- 84
2020-03-16 10:00:00 8.3 23 Este 34 Este 0 -- -- 94
2020-03-16 09:00:00 8.6 20 Este 30 Este 0 -- -- 93
2020-03-16 08:00:00 7.5 12 Este 22 Este 0 -- -- 97
2020-03-16 07:00:00 7.3 13 Este 19 Este 0.2 -- -- 97
2020-03-16 06:00:00 7.9 11 Este 17 Este 0.4 -- -- 96
2020-03-16 05:00:00 7.9 8 Este 13 Sudeste 0.4 -- -- 96
2020-03-16 04:00:00 7.8 7 Sudeste 15 Este 1.4 -- -- 95
2020-03-16 03:00:00 8.1 9 Sudeste 15 Este 2 -- -- 93
2020-03-16 02:00:00 8.7 7 Sudeste 12 Sudeste 0.2 -- -- 87
2020-03-16 01:00:00 8.8 6 Oeste 32 Oeste 0 -- -- 84
2020-03-16 00:00:00 11 14 Oeste 25 Noroeste 0 -- -- 72
2020-03-15 23:00:00 11.3 15 Sur 42 Sur 0 -- -- 70
2020-03-15 22:00:00 11.2 25 Sur 49 Sur 0.6 -- -- 74
2020-03-15 21:00:00 11.6 32 Sur 54 Sudoeste 0.6 -- -- 77
2020-03-15 20:00:00 12.1 4 Sudoeste 8 Sudoeste 0 -- -- 84
2020-03-15 19:00:00 12.7 0 Calma 20 Noroeste 0 -- -- 82
2020-03-15 18:00:00 13.9 8 Norte 21 Este 0 -- -- 74
2020-03-15 17:00:00 15.5 17 Este 24 Este 0 -- -- 66
2020-03-15 16:00:00 15.8 18 Este 26 Este 0 -- -- 62
2020-03-15 15:00:00 16 13 Este 31 Este 0 -- -- 54
2020-03-15 14:00:00 17.5 22 Este 33 Este 0 -- -- 50
2020-03-15 13:00:00 17.2 21 Este 28 Este 0 -- -- 49
2020-03-15 12:00:00 17 17 Este 23 Este 0 -- -- 47
2020-03-15 11:00:00 14.5 14 Este 19 Este 0 -- -- 49
2020-03-15 10:00:00 11.9 12 Este 18 Este 0 -- -- 51
2020-03-15 09:00:00 9.8 14 Este 17 Este 0 -- -- 53
2020-03-15 08:00:00 6.8 5 Sudeste 14 Sudeste 0 -- -- 60
2020-03-15 07:00:00 7 4 Sudeste 17 Sudeste 0 -- -- 55
2020-03-15 06:00:00 6.8 12 Sudeste 19 Sudeste 0 -- -- 55
2020-03-15 05:00:00 5.5 4 Sudeste 10 Sudeste 0 -- -- 60
2020-03-15 04:00:00 5.9 4 Sur 8 Sur 0 -- -- 53
2020-03-15 03:00:00 6.1 4 Sur 8 Sur 0 -- -- 51
2020-03-15 02:00:00 6.3 6 Sur 14 Sur 0 -- -- 52
2020-03-15 01:00:00 6.1 8 Sur 13 Sur 0 -- -- 52
2020-03-15 00:00:00 6.5 10 Sur 14 Sur 0 -- -- 50
2020-03-14 23:00:00 7 10 Sur 14 Sur 0 -- -- 49
2020-03-14 22:00:00 7.3 9 Sur 14 Sur 0 -- -- 50
2020-03-14 21:00:00 8 3 Sur 8 Sur 0 -- -- 50
2020-03-14 20:00:00 10.6 3 Sudoeste 4 Sur 0 -- -- 44
2020-03-14 19:00:00 14.3 2 Noroeste 12 Noroeste 0 -- -- 33
2020-03-14 18:00:00 15.6 7 Noroeste 13 Noroeste 0 -- -- 28
2020-03-14 17:00:00 15.9 9 Noroeste 21 Norte 0 -- -- 25
2020-03-14 16:00:00 15.9 12 Norte 23 Norte 0 -- -- 26
2020-03-14 15:00:00 15.5 14 Norte 29 Norte 0 -- -- 27
2020-03-14 14:00:00 16 15 Noroeste 28 Noroeste 0 -- -- 27
2020-03-14 13:00:00 15.6 13 Noroeste 22 Norte 0 -- -- 24
2020-03-14 12:00:00 14.3 9 Oeste 20 Noroeste 0 -- -- 31
2020-03-14 11:00:00 12.6 12 Noroeste 21 Noroeste 0 -- -- 39
2020-03-14 10:00:00 10.6 4 Norte 9 Noroeste 0 -- -- 68
2020-03-14 09:00:00 7.8 3 Sudeste 8 Este 0 -- -- 86
2020-03-14 08:00:00 4.4 4 Sur 13 Sur 0 -- -- 94
2020-03-14 07:00:00 3.2 8 Sur 12 Sur 0 -- -- 95
2020-03-14 06:00:00 3.2 3 Norte 6 Norte 0 -- -- 93
2020-03-14 05:00:00 4 4 Oeste 8 Noroeste 0 -- -- 92
2020-03-14 04:00:00 4.2 4 Norte 8 Nordeste 0 -- -- 90
2020-03-14 03:00:00 5.5 3 Oeste 9 Noroeste 0 -- -- 87
2020-03-14 02:00:00 6.1 5 Noroeste 14 Noroeste 0 -- -- 86
2020-03-14 01:00:00 7.1 4 Oeste 8 Oeste 0 -- -- 84
2020-03-14 00:00:00 7.4 5 Noroeste 11 Noroeste 0 -- -- 82
2020-03-13 23:00:00 7.8 5 Noroeste 15 Noroeste 0 -- -- 81
2020-03-13 22:00:00 9.1 10 Noroeste 18 Oeste 0 -- -- 76
2020-03-13 21:00:00 9.7 9 Noroeste 21 Noroeste 0 -- -- 75
2020-03-13 20:00:00 11 12 Noroeste 18 Noroeste 0 -- -- 74
2020-03-13 19:00:00 12.5 10 Noroeste 16 Noroeste 0 -- -- 67
2020-03-13 18:00:00 13.6 10 Noroeste 17 Noroeste 0 -- -- 64
2020-03-13 17:00:00 13.4 9 Noroeste 17 Noroeste 0 -- -- 64
2020-03-13 16:00:00 14 9 Noroeste 17 Norte 0 -- -- 62
2020-03-13 15:00:00 14.1 8 Noroeste 20 Norte 0 -- -- 62
2020-03-13 14:00:00 13.2 9 Norte 19 Norte 0 -- -- 65
2020-03-13 13:00:00 13.4 11 Noroeste 22 Noroeste 0 -- -- 65
2020-03-13 12:00:00 12.4 11 Noroeste 22 Noroeste 0 -- -- 72
2020-03-13 11:00:00 10.1 8 Noroeste 26 Noroeste 0 -- -- 78
2020-03-13 10:00:00 10 18 Noroeste 26 Noroeste 0 -- -- 80
2020-03-13 09:00:00 8 13 Noroeste 19 Noroeste 0 -- -- 87
2020-03-13 08:00:00 7.3 8 Noroeste 19 Noroeste 0 -- -- 90
2020-03-13 07:00:00 7.5 10 Noroeste 18 Noroeste 0 -- -- 89
2020-03-13 06:00:00 8.1 9 Noroeste 17 Noroeste 0 -- -- 88
2020-03-13 05:00:00 7.7 7 Oeste 14 Noroeste 0 -- -- 89
2020-03-13 04:00:00 7.8 5 Noroeste 18 Oeste 0 -- -- 90
2020-03-13 03:00:00 8.4 7 Noroeste 18 Noroeste 0 -- -- 89
2020-03-13 02:00:00 8.7 7 Noroeste 15 Oeste 0 -- -- 89
2020-03-13 01:00:00 9 9 Noroeste 17 Oeste 0 -- -- 90
2020-03-13 00:00:00 9.5 9 Noroeste 18 Noroeste 0 -- -- 90
2020-03-12 23:00:00 10.5 12 Noroeste 19 Noroeste 0 -- -- 87
2020-03-12 22:00:00 11.8 10 Noroeste 23 Noroeste 0 -- -- 84
2020-03-12 21:00:00 14 8 Noroeste 19 Noroeste 0.2 -- -- 79
2020-03-12 20:00:00 15.7 9 Norte 20 Noroeste 1.6 -- -- 73
2020-03-12 19:00:00 18 4 Oeste 12 Noroeste 0 -- -- 57
2020-03-12 18:00:00 20 6 Noroeste 14 Noroeste 0 -- -- 51
2020-03-12 17:00:00 21.3 12 Noroeste 18 Noroeste 0 -- -- 45
2020-03-12 16:00:00 23.6 7 Este 17 Nordeste 0 -- -- 36
2020-03-12 15:00:00 24.1 12 Norte 20 Norte 0 -- -- 37
2020-03-12 14:00:00 23.9 9 Norte 16 Norte 0 -- -- 38
2020-03-12 13:00:00 23.5 9 Norte 15 Noroeste 0 -- -- 38
2020-03-12 12:00:00 22.9 7 Norte 14 Nordeste 0 -- -- 41
2020-03-12 11:00:00 21.3 5 Nordeste 9 Este 0 -- -- 42
2020-03-12 10:00:00 19.5 5 Norte 14 Sur 0 -- -- 48
2020-03-12 09:00:00 17 8 Sudeste 17 Sudeste 0 -- -- 55
2020-03-12 08:00:00 14.6 13 Sur 18 Sur 0 -- -- 54
2020-03-12 07:00:00 12.4 4 Sur 17 Sur 0 -- -- 61
2020-03-12 06:00:00 14.8 11 Sur 16 Sur 0 -- -- 55
2020-03-12 05:00:00 13.8 10 Sur 16 Sur 0 -- -- 57
2020-03-12 04:00:00 12.9 9 Sur 15 Sur 0 -- -- 60
2020-03-12 03:00:00 12.9 11 Sur 13 Sur 0 -- -- 60
2020-03-12 02:00:00 13.3 10 Sur 13 Sur 0 -- -- 58
2020-03-12 01:00:00 13.1 8 Sur 12 Sur 0 -- -- 59
2020-03-12 00:00:00 14.1 11 Sur 15 Sur 0 -- -- 56
2020-03-11 23:00:00 14.5 13 Sur 15 Sur 0 -- -- 55
2020-03-11 22:00:00 14.9 10 Sur 14 Sur 0 -- -- 54
2020-03-11 21:00:00 15.3 10 Sur 13 Sur 0 -- -- 54
2020-03-11 20:00:00 17.4 8 Sudeste 19 Sudeste 0 -- -- 48
2020-03-11 19:00:00 19.9 12 Este 14 Este 0 -- -- 43
2020-03-11 18:00:00 23.1 9 Noroeste 24 Noroeste 0 -- -- 35
2020-03-11 17:00:00 24.7 15 Noroeste 27 Noroeste 0 -- -- 29
2020-03-11 16:00:00 24.6 16 Noroeste 27 Oeste 0 -- -- 28
2020-03-11 15:00:00 24.1 16 Noroeste 30 Noroeste 0 -- -- 30
2020-03-11 14:00:00 23.1 17 Oeste 29 Oeste 0 -- -- 26
2020-03-11 13:00:00 22.5 15 Noroeste 26 Noroeste 0 -- -- 24
2020-03-11 12:00:00 21.1 16 Noroeste 24 Noroeste 0 -- -- 25
2020-03-11 11:00:00 19.3 18 Noroeste 25 Noroeste 0 -- -- 31
2020-03-11 10:00:00 16 4 Noroeste 6 Noroeste 0 -- -- 52
2020-03-11 09:00:00 12.1 4 Sur 8 Sur 0 -- -- 67
2020-03-11 08:00:00 7.1 4 Sur 9 Sur 0 -- -- 83
2020-03-11 07:00:00 6.2 6 Sur 10 Sur 0 -- -- 86
2020-03-11 06:00:00 6.4 3 Sur 8 Sur 0 -- -- 81
2020-03-11 05:00:00 6.4 3 Sur 9 Sur 0 -- -- 84
2020-03-11 04:00:00 6.8 4 Sur 6 Sur 0 -- -- 83
2020-03-11 03:00:00 7.3 3 Sur 7 Sur 0 -- -- 80
2020-03-11 02:00:00 8.2 3 Sur 9 Sur 0 -- -- 77
2020-03-11 01:00:00 8.5 6 Sur 9 Sur 0 -- -- 75
2020-03-11 00:00:00 9.9 3 Sur 8 Sur 0 -- -- 69
2020-03-10 23:00:00 10.9 3 Sudoeste 8 Sur 0 -- -- 66
2020-03-10 22:00:00 11.9 5 Sur 9 Sur 0 -- -- 62
2020-03-10 21:00:00 13.5 9 Oeste 21 Noroeste 0 -- -- 58
2020-03-10 20:00:00 15.1 10 Noroeste 19 Noroeste 0 -- -- 54
2020-03-10 19:00:00 18.7 5 Noroeste 14 Noroeste 0 -- -- 44
2020-03-10 18:00:00 20.7 10 Oeste 22 Oeste 0 -- -- 40
2020-03-10 17:00:00 21.6 12 Noroeste 22 Oeste 0 -- -- 36
2020-03-10 16:00:00 20.5 13 Oeste 26 Noroeste 0 -- -- 39
2020-03-10 15:00:00 20.3 11 Noroeste 25 Oeste 0 -- -- 37
2020-03-10 14:00:00 18.9 14 Noroeste 29 Oeste 0 -- -- 31
2020-03-10 13:00:00 18 18 Noroeste 35 Noroeste 0 -- -- 29
2020-03-10 12:00:00 17.1 18 Oeste 36 Oeste 0 -- -- 30
2020-03-10 11:00:00 14.6 21 Oeste 38 Oeste 0 -- -- 36
2020-03-10 10:00:00 12.7 17 Oeste 30 Oeste 0 -- -- 43
2020-03-10 09:00:00 10.1 12 Oeste 21 Oeste 0 -- -- 50
2020-03-10 08:00:00 8.5 6 Sudoeste 32 Oeste 0 -- -- 51
2020-03-10 07:00:00 9 15 Oeste 27 Oeste 0 -- -- 47
2020-03-10 06:00:00 8.7 17 Oeste 33 Oeste 0 -- -- 47
2020-03-10 05:00:00 7.6 15 Oeste 32 Noroeste 0 -- -- 52
2020-03-10 04:00:00 7.5 23 Oeste 45 Oeste 0 -- -- 55
2020-03-10 03:00:00 6.6 14 Oeste 31 Oeste 0 -- -- 62
2020-03-10 02:00:00 5.5 12 Oeste 30 Noroeste 0 -- -- 74
2020-03-10 01:00:00 5.4 12 Oeste 30 Noroeste 0 -- -- 76
2020-03-10 00:00:00 5.5 16 Oeste 35 Noroeste 0 -- -- 76
2020-03-09 23:00:00 5.6 21 Noroeste 38 Noroeste 0 -- -- 78
2020-03-09 22:00:00 6 25 Noroeste 48 Noroeste 0 -- -- 77
2020-03-09 21:00:00 6.3 28 Noroeste 49 Noroeste 0 -- -- 78
2020-03-09 20:00:00 7.3 20 Noroeste 41 Noroeste 0 -- -- 73
2020-03-09 19:00:00 8.4 12 Oeste 49 Noroeste 0 -- -- 65
2020-03-09 18:00:00 9.7 28 Noroeste 50 Noroeste 0 -- -- 62
2020-03-09 17:00:00 10.8 35 Noroeste 63 Noroeste 0 -- -- 57
2020-03-09 16:00:00 12 38 Noroeste 59 Noroeste 0 -- -- 50
2020-03-09 15:00:00 12 33 Noroeste 54 Noroeste 0 -- -- 54
2020-03-09 14:00:00 11.7 32 Noroeste 51 Noroeste 0 -- -- 54
2020-03-09 13:00:00 11.2 28 Noroeste 46 Noroeste 0 -- -- 53
2020-03-09 12:00:00 10.2 22 Noroeste 39 Noroeste 0 -- -- 56
2020-03-09 11:00:00 8.6 23 Noroeste 41 Noroeste 0 -- -- 63
2020-03-09 10:00:00 7.4 22 Noroeste 39 Noroeste 0 -- -- 70
2020-03-09 09:00:00 6.7 21 Noroeste 36 Noroeste 0 -- -- 79
2020-03-09 08:00:00 5.7 20 Noroeste 40 Noroeste 0 -- -- 83
2020-03-09 07:00:00 6.2 18 Noroeste 29 Noroeste 0 -- -- 86
2020-03-09 06:00:00 6.5 17 Noroeste 40 Noroeste 0 -- -- 84
2020-03-09 05:00:00 6.6 20 Noroeste 34 Noroeste 0 -- -- 86
2020-03-09 04:00:00 6.7 13 Noroeste 27 Noroeste 0 -- -- 86
2020-03-09 03:00:00 7 14 Noroeste 27 Noroeste 0 -- -- 85
2020-03-09 02:00:00 7.7 11 Noroeste 31 Oeste 0 -- -- 83
2020-03-09 01:00:00 9 17 Oeste 33 Oeste 0 -- -- 71
2020-03-09 00:00:00 9.6 22 Oeste 33 Oeste 0 -- -- 63
2020-03-08 23:00:00 8.8 4 Norte 26 Noroeste 0 -- -- 66
2020-03-08 22:00:00 9.9 7 Noroeste 19 Oeste 0 -- -- 63
2020-03-08 21:00:00 10.9 4 Noroeste 13 Oeste 0 -- -- 59
2020-03-08 20:00:00 11.7 6 Oeste 21 Oeste 0 -- -- 53
2020-03-08 19:00:00 12.9 12 Oeste 31 Oeste 0 -- -- 48
2020-03-08 18:00:00 13.9 13 Oeste 29 Oeste 0 -- -- 42
2020-03-08 17:00:00 15.9 14 Noroeste 26 Oeste 0 -- -- 34
2020-03-08 16:00:00 15.6 12 Oeste 22 Noroeste 0 -- -- 39
2020-03-08 15:00:00 15.3 15 Noroeste 28 Oeste 0 -- -- 36
2020-03-08 14:00:00 15.6 17 Noroeste 29 Oeste 0 -- -- 39
2020-03-08 13:00:00 14.3 18 Noroeste 33 Noroeste 0 -- -- 43
2020-03-08 12:00:00 12.1 19 Oeste 36 Oeste 0 -- -- 52
2020-03-08 11:00:00 10.7 19 Oeste 39 Oeste 0 -- -- 57
2020-03-08 10:00:00 9.7 10 Noroeste 24 Oeste 0 -- -- 62
2020-03-08 09:00:00 6.3 5 Sudeste 14 Sudoeste 0 -- -- 76
2020-03-08 08:00:00 5 10 Sudoeste 21 Sudoeste 0 -- -- 77
2020-03-08 07:00:00 4.1 5 Sudoeste 15 Sudoeste 0 -- -- 82
2020-03-08 06:00:00 4 4 Sur 12 Oeste 0 -- -- 81
2020-03-08 05:00:00 2.9 5 Sur 12 Sur 0 -- -- 83
2020-03-08 04:00:00 4 3 Sur 15 Oeste 0 -- -- 80
2020-03-08 03:00:00 5.1 4 Sudoeste 9 Sudoeste 0 -- -- 78
2020-03-08 02:00:00 3.2 2 Sudoeste 11 Sur 0 -- -- 85
2020-03-08 01:00:00 4 8 Sur 17 Sur 0 -- -- 82
2020-03-08 00:00:00 6.1 9 Oeste 17 Sudoeste 0 -- -- 76
2020-03-07 23:00:00 6.3 10 Oeste 23 Oeste 0 -- -- 78
2020-03-07 22:00:00 6.4 3 Noroeste 33 Noroeste 0 -- -- 80
2020-03-07 21:00:00 6.7 17 Noroeste 31 Oeste 0 -- -- 78
2020-03-07 20:00:00 7.4 13 Oeste 34 Noroeste 0 -- -- 77
2020-03-07 19:00:00 8.3 23 Noroeste 49 Oeste 0 -- -- 73
2020-03-07 18:00:00 9.5 27 Noroeste 52 Noroeste 0 -- -- 67
2020-03-07 17:00:00 10.4 26 Noroeste 55 Noroeste 0 -- -- 67
2020-03-07 16:00:00 11.3 32 Noroeste 62 Noroeste 0 -- -- 63
2020-03-07 15:00:00 11.1 36 Noroeste 65 Noroeste 0 -- -- 62
2020-03-07 14:00:00 10.5 38 Noroeste 66 Noroeste 0 -- -- 63
2020-03-07 13:00:00 10.1 40 Noroeste 63 Noroeste 0 -- -- 65
2020-03-07 12:00:00 8.6 25 Noroeste 53 Noroeste 0 -- -- 72
2020-03-07 11:00:00 6.1 18 Oeste 44 Oeste 0 -- -- 80
2020-03-07 10:00:00 4.4 21 Oeste 38 Oeste 0 -- -- 82
2020-03-07 09:00:00 4.4 19 Oeste 32 Oeste 0 -- -- 76
2020-03-07 08:00:00 3.4 17 Noroeste 30 Oeste 0 -- -- 80
2020-03-07 07:00:00 2.9 15 Noroeste 33 Noroeste 0 -- -- 77
2020-03-07 06:00:00 3.2 15 Noroeste 41 Noroeste 0 -- -- 79
2020-03-07 05:00:00 3.2 16 Noroeste 39 Noroeste 0 -- -- 81
2020-03-07 04:00:00 2.9 15 Noroeste 42 Noroeste 0 -- -- 83
2020-03-07 03:00:00 2.7 28 Noroeste 48 Noroeste 0 -- -- 79
2020-03-07 02:00:00 2.6 19 Noroeste 37 Noroeste 0 -- -- 75
2020-03-07 01:00:00 2.4 27 Noroeste 42 Noroeste 0 -- -- 75
2020-03-07 00:00:00 2.5 20 Noroeste 35 Noroeste 0 -- -- 75
2020-03-06 23:00:00 3.1 21 Noroeste 41 Noroeste 0 -- -- 72
2020-03-06 22:00:00 3 22 Noroeste 50 Noroeste 0 -- -- 74
2020-03-06 21:00:00 3.8 27 Noroeste 57 Noroeste 0 -- -- 67
2020-03-06 20:00:00 4.1 29 Noroeste 56 Noroeste 0 -- -- 67
2020-03-06 19:00:00 4.1 28 Noroeste 50 Noroeste 0 -- -- 74
2020-03-06 18:00:00 5.2 31 Noroeste 58 Noroeste 0 -- -- 65
2020-03-06 17:00:00 6.5 37 Noroeste 55 Noroeste 0 -- -- 60
2020-03-06 16:00:00 7.3 33 Noroeste 59 Noroeste 0 -- -- 61
2020-03-06 15:00:00 7.2 33 Noroeste 75 Noroeste 0 -- -- 63
2020-03-06 14:00:00 6.1 39 Noroeste 62 Noroeste 0 -- -- 64
2020-03-06 13:00:00 2.9 18 Oeste 43 Noroeste 0.8 -- -- 91
2020-03-06 12:00:00 3.7 19 Norte 35 Noroeste 0.6 -- -- 94
2020-03-06 11:00:00 1.5 18 Noroeste 53 Oeste 0.8 -- -- 95
2020-03-06 10:00:00 5.4 36 Oeste 55 Oeste 0.6 -- -- 77
2020-03-06 09:00:00 4.4 22 Oeste 58 Sudoeste 0.4 -- -- 83
2020-03-06 08:00:00 5.1 30 Oeste 55 Oeste 0 -- -- 74
2020-03-06 07:00:00 5.4 24 Oeste 39 Oeste 0 -- -- 73
2020-03-06 06:00:00 5.1 18 Oeste 35 Sudoeste 0 -- -- 75
2020-03-06 05:00:00 4.7 18 Oeste 47 Oeste 0 -- -- 76
2020-03-06 04:00:00 5.1 27 Oeste 46 Oeste 0 -- -- 73
2020-03-06 03:00:00 5.7 25 Oeste 43 Oeste 0 -- -- 79
2020-03-06 02:00:00 4 3 Sudoeste 4 Sudoeste 0 -- -- 91
2020-03-06 01:00:00 4.4 3 Oeste 17 Noroeste 0 -- -- 86
2020-03-06 00:00:00 5 11 Noroeste 23 Noroeste 0.2 -- -- 85
2020-03-05 23:00:00 5.6 12 Oeste 35 Oeste 0.2 -- -- 88
2020-03-05 22:00:00 5.9 18 Noroeste 41 Noroeste 1.4 -- -- 90
2020-03-05 21:00:00 7 24 Noroeste 37 Noroeste 0.2 -- -- 89
2020-03-05 20:00:00 8.4 20 Noroeste 40 Noroeste 0 -- -- 76
2020-03-05 19:00:00 11.6 24 Oeste 60 Oeste 0 -- -- 53
2020-03-05 18:00:00 12.6 34 Oeste 69 Oeste 0 -- -- 47
2020-03-05 17:00:00 13.4 39 Oeste 67 Oeste 0 -- -- 43
2020-03-05 16:00:00 13.7 43 Oeste 76 Oeste 0 -- -- 46
2020-03-05 15:00:00 13.5 42 Oeste 74 Oeste 0 -- -- 46
2020-03-05 14:00:00 11.8 40 Oeste 71 Sudoeste 0 -- -- 66
2020-03-05 13:00:00 15.8 32 Sudoeste 58 Sudoeste 0 -- -- 57
2020-03-05 12:00:00 13.8 25 Oeste 54 Sudoeste 0 -- -- 65
2020-03-05 11:00:00 13.5 37 Sudoeste 61 Sudoeste 0 -- -- 65
2020-03-05 10:00:00 11.5 14 Sudoeste 25 Sudoeste 0 -- -- 69
2020-03-05 09:00:00 10.4 3 Noroeste 21 Sudoeste 0 -- -- 73
2020-03-05 08:00:00 10.7 9 Oeste 43 Sudoeste 0 -- -- 71
2020-03-05 07:00:00 10.6 21 Sudoeste 36 Sudoeste 0 -- -- 72
2020-03-05 06:00:00 10.3 7 Sur 26 Sudoeste 0 -- -- 73
2020-03-05 05:00:00 10.4 13 Sudoeste 32 Oeste 0 -- -- 69
2020-03-05 04:00:00 10.4 15 Sudoeste 25 Oeste 0 -- -- 68
2020-03-05 03:00:00 10.2 13 Sudoeste 23 Sudoeste 0 -- -- 69
2020-03-05 02:00:00 9.7 10 Sudoeste 19 Sudoeste 0 -- -- 71
2020-03-05 01:00:00 9.9 11 Sudoeste 19 Sudoeste 0 -- -- 69
2020-03-05 00:00:00 10.6 3 Sur 15 Oeste 0 -- -- 70
2020-03-04 23:00:00 11.4 11 Oeste 30 Oeste 0 -- -- 66
2020-03-04 22:00:00 12 19 Oeste 39 Oeste 0 -- -- 64
2020-03-04 21:00:00 12.2 18 Oeste 33 Oeste 0 -- -- 61
2020-03-04 20:00:00 12 9 Oeste 26 Oeste 0 -- -- 64
2020-03-04 19:00:00 13.2 10 Noroeste 36 Noroeste 0 -- -- 61
2020-03-04 18:00:00 15.4 17 Noroeste 41 Oeste 0 -- -- 53
2020-03-04 17:00:00 16.2 24 Oeste 41 Oeste 0 -- -- 51
2020-03-04 16:00:00 16.4 25 Oeste 50 Oeste 0 -- -- 49
2020-03-04 15:00:00 16.2 29 Oeste 50 Oeste 0 -- -- 52
2020-03-04 14:00:00 16.6 27 Oeste 56 Oeste 0 -- -- 52
2020-03-04 13:00:00 16.3 33 Oeste 53 Oeste 0 -- -- 57
2020-03-04 12:00:00 15.7 24 Oeste 46 Oeste 0 -- -- 62
2020-03-04 11:00:00 15.1 26 Oeste 43 Oeste 0 -- -- 69
2020-03-04 10:00:00 13.3 24 Oeste 49 Oeste 0 -- -- 75
2020-03-04 09:00:00 12.6 23 Oeste 39 Oeste 0 -- -- 77
2020-03-04 08:00:00 10.6 17 Oeste 26 Oeste 0 -- -- 85
2020-03-04 07:00:00 9.6 7 Oeste 21 Oeste 0 -- -- 86
2020-03-04 06:00:00 10.2 14 Oeste 29 Sudoeste 0 -- -- 82
2020-03-04 05:00:00 9.7 15 Oeste 27 Oeste 0 -- -- 80
2020-03-04 04:00:00 8.8 13 Oeste 19 Noroeste 0 -- -- 79
2020-03-04 03:00:00 7.2 8 Oeste 14 Oeste 0 -- -- 83
2020-03-04 02:00:00 5.9 8 Oeste 13 Oeste 0 -- -- 89
2020-03-04 01:00:00 6.3 3 Sudoeste 13 Noroeste 0 -- -- 84
2020-03-04 00:00:00 7.4 9 Oeste 31 Oeste 0 -- -- 83
2020-03-03 23:00:00 7.7 15 Noroeste 29 Oeste 0 -- -- 81
2020-03-03 22:00:00 8 13 Oeste 31 Noroeste 0 -- -- 80
2020-03-03 21:00:00 8.5 20 Noroeste 34 Noroeste 0 -- -- 78
2020-03-03 20:00:00 8.8 13 Noroeste 46 Noroeste 0 -- -- 81
2020-03-03 19:00:00 9.8 27 Noroeste 62 Oeste 3.2 -- -- 83
2020-03-03 18:00:00 15.3 44 Oeste 76 Oeste 0 -- -- 55
2020-03-03 17:00:00 16.3 47 Oeste 86 Oeste 0 -- -- 49
2020-03-03 16:00:00 16.1 50 Oeste 82 Oeste 0 -- -- 48
2020-03-03 15:00:00 14.3 54 Oeste 91 Oeste 0 -- -- 57
2020-03-03 14:00:00 12.8 55 Oeste 89 Oeste 0 -- -- 62
2020-03-03 13:00:00 11.3 50 Oeste 81 Oeste 0 -- -- 63
2020-03-03 12:00:00 10.5 49 Oeste 88 Sudoeste 0 -- -- 64
2020-03-03 11:00:00 8.9 46 Oeste 77 Sudoeste 0 -- -- 68
2020-03-03 10:00:00 6.2 16 Sudoeste 36 Oeste 0.2 -- -- 74
2020-03-03 09:00:00 4.2 12 Sudoeste 29 Sudoeste 0.2 -- -- 82
2020-03-03 08:00:00 4.3 18 Oeste 33 Oeste 0 -- -- 77
2020-03-03 07:00:00 4.4 15 Oeste 35 Oeste 0 -- -- 68
2020-03-03 06:00:00 4.1 18 Oeste 28 Oeste 0 -- -- 68
2020-03-03 05:00:00 3.1 8 Oeste 27 Oeste 0 -- -- 71
2020-03-03 04:00:00 3.7 17 Oeste 39 Oeste 0 -- -- 68
2020-03-03 03:00:00 4 22 Oeste 44 Oeste 0 -- -- 69
2020-03-03 02:00:00 2.9 12 Oeste 44 Oeste 0 -- -- 75
2020-03-03 01:00:00 4.1 29 Oeste 48 Oeste 0 -- -- 68
2020-03-03 00:00:00 3.9 23 Oeste 40 Oeste 0 -- -- 69
2020-03-02 23:00:00 3.8 17 Oeste 27 Oeste 0 -- -- 72
2020-03-02 22:00:00 2.1 5 Noroeste 11 Noroeste 0 -- -- 78
2020-03-02 21:00:00 3.6 9 Noroeste 23 Noroeste 0 -- -- 73
2020-03-02 20:00:00 4.5 12 Oeste 32 Oeste 0 -- -- 75
2020-03-02 19:00:00 4.1 18 Oeste 41 Oeste 0 -- -- 77
2020-03-02 18:00:00 5.4 21 Oeste 52 Oeste 0 -- -- 70
2020-03-02 17:00:00 4.6 23 Noroeste 50 Noroeste 0.6 -- -- 85
2020-03-02 16:00:00 7.3 28 Noroeste 51 Noroeste 0 -- -- 70
2020-03-02 15:00:00 3.8 31 Noroeste 50 Noroeste 0 -- -- 86
2020-03-02 14:00:00 3.9 29 Noroeste 57 Norte 0 -- -- 84
2020-03-02 13:00:00 7.9 22 Noroeste 39 Norte 0 -- -- 74
2020-03-02 12:00:00 6.8 19 Noroeste 40 Noroeste 0 -- -- 76
2020-03-02 11:00:00 6.7 22 Noroeste 64 Noroeste 0 -- -- 79
2020-03-02 10:00:00 9.2 41 Noroeste 75 Oeste 0 -- -- 59
2020-03-02 09:00:00 9.4 53 Oeste 81 Oeste 0.2 -- -- 62
2020-03-02 08:00:00 7.7 47 Oeste 86 Noroeste 1.4 -- -- 83
2020-03-02 07:00:00 12.1 48 Sudoeste 82 Sudoeste 0 -- -- 66
2020-03-02 06:00:00 12.7 50 Sudoeste 104 Sudoeste 0 -- -- 61
2020-03-02 05:00:00 12.9 50 Sudoeste 101 Sudoeste 0 -- -- 61
2020-03-02 04:00:00 13.4 55 Sudoeste 93 Sudoeste 0 -- -- 59
2020-03-02 03:00:00 13.3 44 Sudoeste 90 Sudoeste 0 -- -- 59
2020-03-02 02:00:00 13.8 41 Sudoeste 75 Sudoeste 0 -- -- 56
2020-03-02 01:00:00 12.9 13 Sudoeste 33 Sudoeste 0 -- -- 60
2020-03-02 00:00:00 12.7 13 Sur 28 Sudoeste 0 -- -- 61